Airfield :
LOGIN :

Register | Disclaimer

   EN    FR    IT 

 










Legend :    VFR   Marginal VFR   IFR   Intensive IFR   Very Intensive IFR
Visi :
Ceiling :
>= 8 km
>= 3000ft
5 to 8 km
1000 to 3000 ft
1500m to 5 km
500 to 1000 ft
800 to 1500m
200 to 500 ft
< 800m
< 200 ft
Symbols :   Thunderstorms  Fog  Heavy snow  Heavy precipitations  Wind > 20 kt
SIGMETs :     Misc.  Thunderstorms  Icing  Turbulence  Mountain Waves  Volcanic Ashes






- Airport Elevation : 102 ft
- IATA code : CNG


LFBG - Cognac

CURRENT METAR :
  • 072030Z AUTO 00000KT CAVOK 17/08 Q1023 NOSIG

EXPIRED METARs :
  • 072000Z AUTO 00000KT CAVOK 17/09 Q1023 NOSIG
  • 071930Z AUTO 00000KT CAVOK 18/10 Q1023 NOSIG
  • 071900Z AUTO 00000KT CAVOK 19/09 Q1023 NOSIG
  • 071830Z AUTO 00000KT CAVOK 19/08 Q1023 NOSIG
  • 071800Z AUTO VRB03KT CAVOK 20/08 Q1023 NOSIG

TAF TAF LFBG
Valid from the 07 at 21:00 until the 08 at 21:00 UTC


072000Z 0721/0821 VRB02KT CAVOK



MET'MAP, your aeronautical weather chart ! - Copyright ORBIFLY December 2007 - Disclaimer

ORBIFLY MET'MAP TEAM :

Programming & Development : Alexandra Zaïnal
Concept & original design : Baudouin d'Aumeries
Assistance for programming : Marc-Olivier Méhu
Technical & hardware support : Manuel Goepfert

Contact : metmap@orbifly.com




SOURCES & CREDITS :

   NOAA